Millville Municipal Airport
KMIV : rendu visible

Aérodrome :











RETROUVEZ-NOUS SUR...

 
LOGIN :

S'inscrire | Disclaimer

   EN    FR    IT 

 









Légende :    VFR   VFR Marginal   IFR   IFR Intensif   IFR Très Intensif
Visi : 
Plafond : 
>= 8 km
>= 3000ft
5 à 8 km
1000 à 3000 ft
1500m à 5 km
500 à 1000 ft
800 à 1500m
200 à 500 ft
< 800m
< 200 ft
Symboles :   Orages  Brouillard  Fortes neiges  Fortes précipitations  Vent > 20 kt






- Altitude de l'aérodrome : 85 ft


KMIV - Millville Municipal

DERNIER METAR :
  • 100654Z AUTO 23007G14KT 10SM OVC018 14/12 A2981 RMK AO2 SLP092 T01390122

METARs EXPIRÉS :
  • 100554Z AUTO 23008KT 10SM OVC017 14/12 A2981 RMK AO2 SLP093 60012 T01390122 10139 20117 58009
  • 100503Z AUTO 21007G15KT 180V250 10SM FEW008 OVC016 13/12 A2982 RMK AO2 T01330122
  • 100454Z AUTO 22007KT 180V250 10SM FEW010 OVC015 13/12 A2983 RMK AO2 RAE46 SLP098 P0002 T01330122 401390044
  • 100428Z AUTO VRB06KT 10SM -RA FEW007 OVC015 13/12 A2983 RMK AO2 P0002 T01330122

TAF KMIV
Valide du 10 à 06h jusqu'au 11 à 06h UTC


100545Z 1006/1106 22010G20KT P6SM FEW010 OVC015 WS020/22040KT
FM101300 22008KT P6SM VCSH OVC015
FM101600 23008KT P6SM -RA OVC025
FM110300 32010G19KT 4SM -RA OVC030



MET'MAP, la Météo Aéronautique d'un coup d'oeil ! - Copyright ORBIFLY Décembre 2007 - Disclaimer

ORBIFLY MET'MAP TEAM :

Programmation & Développement : Alexandra Zaïnal
Sur une idée originale de : Baudouin d'Aumeries
Assistance à la programmation : Marc-Olivier Méhu
Soutien technique & logistique : Manuel Goepfert

Contact : metmap@orbifly.com




SOURCES & CREDITS :

   NOAA       Earth
Advisory